Time;durP1;ratioP1;P1;durP2;ratioP2;P2;SDS_P1;SDS_P2;PMS_P1;PMS_P2;Temp;Humidity;BMP_temperature;BMP_pressure;BME280_temperature;BME280_humidity;BME280_pressure;Samples;Min_cycle;Max_cycle;Signal;HPM_P1;HPM_P2
2023/04/27 00:00:59;;;;;;;;;;;10.80;64.30;;;;;;4992301;28;89105;-39
2023/04/27 00:03:26;;;;;;;;;;;10.80;64.70;;;;;;4992700;28;88729;-39
2023/04/27 00:05:51;;;;;;;;;;;10.80;64.50;;;;;;4991105;28;88936;-39
2023/04/27 00:08:17;;;;;;;;;;;10.80;64.40;;;;;;4991251;28;89319;-39
2023/04/27 00:10:42;;;;;;;;;;;10.80;64.20;;;;;;4990305;28;87088;-39
2023/04/27 00:13:08;;;;;;;;;;;10.70;64.10;;;;;;4992566;28;89159;-39
2023/04/27 00:15:33;;;;;;;;;;;10.70;64.40;;;;;;4990655;28;89385;-39
2023/04/27 00:18:00;;;;;;;;;;;10.70;63.90;;;;;;4992708;28;87358;-39
2023/04/27 00:20:25;;;;;;;;;;;10.70;64.10;;;;;;4993799;28;88917;-39
2023/04/27 00:22:51;;;;;;;;;;;10.70;64.20;;;;;;4992678;28;91322;-40
2023/04/27 00:25:16;;;;;;;;;;;10.70;63.90;;;;;;4996729;28;87580;-39
2023/04/27 00:27:42;;;;;;;;;;;10.70;64.30;;;;;;4995306;28;88122;-39
2023/04/27 00:30:08;;;;;;;;;;;10.70;64.10;;;;;;4992667;28;87554;-39
2023/04/27 00:32:33;;;;;;;;;;;10.70;64.10;;;;;;4996024;28;88962;-39
2023/04/27 00:34:59;;;;;;;;;;;10.70;64.40;;;;;;4993210;28;89254;-39
2023/04/27 00:37:24;;;;;;;;;;;10.60;64.20;;;;;;4994982;28;86910;-39
2023/04/27 00:39:50;;;;;;;;;;;10.70;64.10;;;;;;4995034;28;87052;-39
2023/04/27 00:42:18;;;;;;;;;;;10.70;64.20;;;;;;4992680;28;89771;-39
2023/04/27 00:44:46;;;;;;;;;;;10.60;64.30;;;;;;4995155;28;88005;-39
2023/04/27 00:47:12;;;;;;;;;;;10.60;64.20;;;;;;4995226;28;89677;-39
2023/04/27 00:49:38;;;;;;;;;;;10.60;64.40;;;;;;4994765;28;87138;-39
2023/04/27 00:52:04;;;;;;;;;;;10.60;64.50;;;;;;4994515;28;87477;-39
2023/04/27 00:54:30;;;;;;;;;;;10.60;64.60;;;;;;4992043;28;89061;-39
2023/04/27 00:56:55;;;;;;;;;;;10.60;64.40;;;;;;4995665;28;87250;-39
2023/04/27 00:59:21;;;;;;;;;;;10.60;64.40;;;;;;4992288;28;89637;-39
2023/04/27 01:01:47;;;;;;;;;;;10.60;64.60;;;;;;4995168;28;87359;-39
2023/04/27 01:04:12;;;;;;;;;;;10.60;64.60;;;;;;4993390;28;87151;-39
2023/04/27 01:06:38;;;;;;;;;;;10.50;64.50;;;;;;4993234;28;89402;-40
2023/04/27 01:09:05;;;;;;;;;;;10.50;64.70;;;;;;4996248;28;90236;-39
2023/04/27 01:11:32;;;;;;;;;;;10.50;64.60;;;;;;4991842;28;89730;-39
2023/04/27 01:14:02;;;;;;;;;;;10.50;64.50;;;;;;4991603;28;89773;-39
2023/04/27 01:16:27;;;;;;;;;;;10.60;64.50;;;;;;4993912;28;87005;-39
2023/04/27 01:18:53;;;;;;;;;;;10.50;64.80;;;;;;4993936;28;88002;-39
2023/04/27 01:21:18;;;;;;;;;;;10.40;64.60;;;;;;4992501;28;89655;-39
2023/04/27 01:23:44;;;;;;;;;;;10.50;64.70;;;;;;4994754;28;87180;-39
2023/04/27 01:26:12;;;;;;;;;;;10.50;64.70;;;;;;4991858;28;89052;-39
2023/04/27 01:28:37;;;;;;;;;;;10.50;64.60;;;;;;4994570;28;87203;-39
2023/04/27 01:31:03;;;;;;;;;;;10.50;64.60;;;;;;4995679;28;87007;-39
2023/04/27 01:33:28;;;;;;;;;;;10.50;64.60;;;;;;4992043;28;91186;-39
2023/04/27 01:35:54;;;;;;;;;;;10.50;64.60;;;;;;4994162;28;87175;-39
2023/04/27 01:38:20;;;;;;;;;;;10.40;64.60;;;;;;4992051;28;88745;-39
2023/04/27 01:40:45;;;;;;;;;;;10.40;64.70;;;;;;4994629;28;88060;-39
2023/04/27 01:43:11;;;;;;;;;;;10.40;64.70;;;;;;4991977;28;88262;-39
2023/04/27 01:45:36;;;;;;;;;;;10.40;64.80;;;;;;4993993;28;88912;-39
2023/04/27 01:48:02;;;;;;;;;;;10.40;64.90;;;;;;4993139;28;88189;-39
2023/04/27 01:50:27;;;;;;;;;;;10.40;64.80;;;;;;4996170;28;86385;-39
2023/04/27 01:52:53;;;;;;;;;;;10.40;64.90;;;;;;4993928;28;89944;-39
2023/04/27 01:55:18;;;;;;;;;;;10.40;64.80;;;;;;4991199;28;87173;-39
2023/04/27 01:57:44;;;;;;;;;;;10.40;64.90;;;;;;4994079;28;88876;-39
2023/04/27 02:00:10;;;;;;;;;;;10.40;64.90;;;;;;4991405;28;89437;-39
2023/04/27 02:02:35;;;;;;;;;;;10.40;64.80;;;;;;4992872;28;87180;-39
2023/04/27 02:05:01;;;;;;;;;;;10.30;64.80;;;;;;4993258;28;87475;-39
2023/04/27 02:07:26;;;;;;;;;;;10.40;64.90;;;;;;4991975;28;88427;-39
2023/04/27 02:09:52;;;;;;;;;;;10.40;65.00;;;;;;4994292;28;87150;-39
2023/04/27 02:12:17;;;;;;;;;;;10.40;65.10;;;;;;4993409;28;89069;-39
2023/04/27 02:14:43;;;;;;;;;;;10.40;65.00;;;;;;4994110;28;86389;-39
2023/04/27 02:17:08;;;;;;;;;;;10.30;65.10;;;;;;4992400;28;87158;-39
2023/04/27 02:19:35;;;;;;;;;;;10.30;65.00;;;;;;4992735;28;87398;-39
2023/04/27 02:22:00;;;;;;;;;;;10.30;65.00;;;;;;4992738;28;88284;-39
2023/04/27 02:24:26;;;;;;;;;;;10.30;65.00;;;;;;4991462;28;90010;-39
2023/04/27 02:26:51;;;;;;;;;;;10.30;65.00;;;;;;4993949;28;89768;-39
2023/04/27 02:29:17;;;;;;;;;;;10.30;65.10;;;;;;4991161;28;87446;-39
2023/04/27 02:31:43;;;;;;;;;;;10.30;65.00;;;;;;4993558;28;87038;-39
2023/04/27 02:34:08;;;;;;;;;;;10.30;65.10;;;;;;4994789;28;87966;-39
2023/04/27 02:36:34;;;;;;;;;;;10.30;65.10;;;;;;4991700;28;88248;-39
2023/04/27 02:39:00;;;;;;;;;;;10.30;65.10;;;;;;4993007;28;88473;-39
2023/04/27 02:41:27;;;;;;;;;;;10.30;65.10;;;;;;4990507;28;87252;-39
2023/04/27 02:43:53;;;;;;;;;;;10.20;65.10;;;;;;4990639;28;88096;-39
2023/04/27 02:46:18;;;;;;;;;;;10.20;65.10;;;;;;4992065;28;90316;-39
2023/04/27 02:48:44;;;;;;;;;;;10.20;65.20;;;;;;4991493;28;87703;-39
2023/04/27 02:51:10;;;;;;;;;;;10.30;65.10;;;;;;4991715;28;88858;-39
2023/04/27 02:53:35;;;;;;;;;;;10.20;65.10;;;;;;4992787;28;89416;-39
2023/04/27 02:56:01;;;;;;;;;;;10.20;65.10;;;;;;4992978;28;87159;-39
2023/04/27 02:58:26;;;;;;;;;;;10.20;65.10;;;;;;4993768;28;88978;-39
2023/04/27 03:00:52;;;;;;;;;;;10.20;65.10;;;;;;4991076;28;87129;-39
2023/04/27 03:03:18;;;;;;;;;;;10.20;65.20;;;;;;4993006;28;87387;-39
2023/04/27 03:05:43;;;;;;;;;;;10.20;65.30;;;;;;4991665;28;89523;-39
2023/04/27 03:08:09;;;;;;;;;;;10.20;65.30;;;;;;4991150;28;86921;-39
2023/04/27 03:10:34;;;;;;;;;;;10.20;65.30;;;;;;4992209;28;89101;-39
2023/04/27 03:13:00;;;;;;;;;;;10.20;65.30;;;;;;4989824;28;89257;-39
2023/04/27 03:15:25;;;;;;;;;;;10.10;65.30;;;;;;4992877;28;87195;-39
2023/04/27 03:17:51;;;;;;;;;;;10.20;65.30;;;;;;4994195;28;87400;-39
2023/04/27 03:20:16;;;;;;;;;;;10.20;65.40;;;;;;4990158;28;87210;-39
2023/04/27 03:22:44;;;;;;;;;;;10.10;65.30;;;;;;4991431;28;87553;-39
2023/04/27 03:25:10;;;;;;;;;;;10.10;65.40;;;;;;4992566;28;88557;-39
2023/04/27 03:27:35;;;;;;;;;;;10.10;65.40;;;;;;4990558;28;86647;-39
2023/04/27 03:30:02;;;;;;;;;;;10.10;65.40;;;;;;4992958;28;88011;-39
2023/04/27 03:32:27;;;;;;;;;;;10.10;65.40;;;;;;4990630;28;88587;-39
2023/04/27 03:34:53;;;;;;;;;;;10.10;65.40;;;;;;4990903;28;88378;-39
2023/04/27 03:37:18;;;;;;;;;;;10.10;65.30;;;;;;4994562;28;90265;-39
2023/04/27 03:39:44;;;;;;;;;;;10.10;65.30;;;;;;4990307;28;87120;-39
2023/04/27 03:42:09;;;;;;;;;;;10.10;65.40;;;;;;4992691;28;88054;-39
2023/04/27 03:44:35;;;;;;;;;;;10.00;65.30;;;;;;4989572;28;88263;-39
2023/04/27 03:47:01;;;;;;;;;;;10.10;65.40;;;;;;4991977;28;87113;-39
2023/04/27 03:49:26;;;;;;;;;;;10.00;65.40;;;;;;4989989;28;87477;-39
2023/04/27 03:51:52;;;;;;;;;;;10.00;65.40;;;;;;4990893;28;88087;-39
2023/04/27 03:54:17;;;;;;;;;;;10.00;65.30;;;;;;4992267;28;87117;-39
2023/04/27 03:56:46;;;;;;;;;;;10.00;65.40;;;;;;4989492;28;88671;-39
2023/04/27 03:59:12;;;;;;;;;;;10.00;65.40;;;;;;4992057;28;90246;-39
2023/04/27 04:01:38;;;;;;;;;;;10.00;65.50;;;;;;4992241;28;89654;-39
2023/04/27 04:04:04;;;;;;;;;;;10.00;65.50;;;;;;4990737;28;89468;-39
2023/04/27 04:06:30;;;;;;;;;;;10.00;65.40;;;;;;4990514;28;87107;-39
2023/04/27 04:08:55;;;;;;;;;;;10.00;65.30;;;;;;4992049;28;88939;-39
2023/04/27 04:11:21;;;;;;;;;;;10.00;65.40;;;;;;4988698;28;89474;-39
2023/04/27 04:13:46;;;;;;;;;;;10.00;65.40;;;;;;4992317;28;87209;-39
2023/04/27 04:16:12;;;;;;;;;;;10.00;65.40;;;;;;4989827;28;87791;-40
2023/04/27 04:18:38;;;;;;;;;;;10.00;65.30;;;;;;4990793;28;89604;-39
2023/04/27 04:21:03;;;;;;;;;;;9.90;65.30;;;;;;4994105;28;87143;-39
2023/04/27 04:23:29;;;;;;;;;;;10.00;65.50;;;;;;4988889;28;90574;-39
2023/04/27 04:25:57;;;;;;;;;;;9.90;65.40;;;;;;4992449;28;87143;-39
2023/04/27 04:28:23;;;;;;;;;;;9.90;65.50;;;;;;4989143;28;87812;-40
2023/04/27 04:30:49;;;;;;;;;;;9.90;65.40;;;;;;4991147;28;89044;-40
2023/04/27 04:33:15;;;;;;;;;;;9.90;65.40;;;;;;4990492;28;87793;-40
2023/04/27 04:35:41;;;;;;;;;;;9.90;65.50;;;;;;4990054;28;88583;-40
2023/04/27 04:38:07;;;;;;;;;;;9.90;65.50;;;;;;4991967;28;89291;-40
2023/04/27 04:40:33;;;;;;;;;;;9.90;65.50;;;;;;4992594;28;86394;-40
2023/04/27 04:42:58;;;;;;;;;;;9.90;65.50;;;;;;4991831;28;87034;-40
2023/04/27 04:45:24;;;;;;;;;;;9.90;65.50;;;;;;4991374;28;87095;-40
2023/04/27 04:47:49;;;;;;;;;;;9.90;65.50;;;;;;4989637;28;89361;-40
2023/04/27 04:50:15;;;;;;;;;;;9.90;66.10;;;;;;4989732;28;89426;-40
2023/04/27 04:52:40;;;;;;;;;;;9.90;65.50;;;;;;4991958;28;87191;-40
2023/04/27 04:55:06;;;;;;;;;;;9.90;65.50;;;;;;4988257;28;88142;-40
2023/04/27 04:57:31;;;;;;;;;;;9.90;65.50;;;;;;4991804;28;88971;-40
2023/04/27 04:59:57;;;;;;;;;;;9.80;65.50;;;;;;4989407;28;87194;-40
2023/04/27 05:02:22;;;;;;;;;;;9.80;65.50;;;;;;4994175;28;88895;-40
2023/04/27 05:04:48;;;;;;;;;;;9.80;65.50;;;;;;4997027;28;88987;-40
2023/04/27 05:07:14;;;;;;;;;;;9.80;65.60;;;;;;4992961;28;88481;-40
2023/04/27 05:09:39;;;;;;;;;;;9.80;65.50;;;;;;4994618;28;89432;-40
2023/04/27 05:12:05;;;;;;;;;;;9.80;65.60;;;;;;4991204;28;88203;-40
2023/04/27 05:14:31;;;;;;;;;;;9.80;65.70;;;;;;4994688;28;87425;-40
2023/04/27 05:16:57;;;;;;;;;;;9.80;65.60;;;;;;4991479;28;88583;-40
2023/04/27 05:19:24;;;;;;;;;;;9.80;65.70;;;;;;4993730;28;87135;-40
2023/04/27 05:21:49;;;;;;;;;;;9.80;65.60;;;;;;4992609;28;89385;-40
2023/04/27 05:24:16;;;;;;;;;;;9.80;65.60;;;;;;4994805;28;88040;-40
2023/04/27 05:26:42;;;;;;;;;;;9.80;65.50;;;;;;4994657;28;87163;-40
2023/04/27 05:29:07;;;;;;;;;;;9.70;65.60;;;;;;4994508;28;87889;-40
2023/04/27 05:31:33;;;;;;;;;;;9.70;65.60;;;;;;4993322;28;88214;-40
2023/04/27 05:33:58;;;;;;;;;;;9.80;65.70;;;;;;4993914;28;87893;-40
2023/04/27 05:36:24;;;;;;;;;;;9.70;65.60;;;;;;4993686;28;89148;-40
2023/04/27 05:38:49;;;;;;;;;;;9.70;65.60;;;;;;4992887;28;87482;-40
2023/04/27 05:41:15;;;;;;;;;;;9.70;65.70;;;;;;4995176;28;87359;-40
2023/04/27 05:43:40;;;;;;;;;;;9.70;65.60;;;;;;4991448;28;89374;-40
2023/04/27 05:46:06;;;;;;;;;;;9.70;65.70;;;;;;4997142;28;87069;-40
2023/04/27 05:48:32;;;;;;;;;;;9.70;65.70;;;;;;4992354;28;89360;-40
2023/04/27 05:50:58;;;;;;;;;;;9.70;65.70;;;;;;4992766;28;88268;-40
2023/04/27 05:53:23;;;;;;;;;;;9.70;65.60;;;;;;4994714;28;89352;-40
2023/04/27 05:55:49;;;;;;;;;;;9.70;65.60;;;;;;4991407;28;89753;-40
2023/04/27 05:58:15;;;;;;;;;;;9.70;65.70;;;;;;4995018;28;87181;-40
2023/04/27 06:00:41;;;;;;;;;;;9.70;65.40;;;;;;4991391;28;88681;-40
2023/04/27 06:03:06;;;;;;;;;;;9.70;65.40;;;;;;4993262;28;89413;-40
2023/04/27 06:05:33;;;;;;;;;;;9.70;65.50;;;;;;4992843;28;87053;-40
2023/04/27 06:07:58;;;;;;;;;;;9.70;65.70;;;;;;4997998;28;88791;-40
2023/04/27 06:10:24;;;;;;;;;;;9.70;65.60;;;;;;4991871;28;87040;-40
2023/04/27 06:12:49;;;;;;;;;;;9.70;65.50;;;;;;4993715;28;89110;-40
2023/04/27 06:15:15;;;;;;;;;;;9.70;65.50;;;;;;4994060;28;89305;-40
2023/04/27 06:17:42;;;;;;;;;;;9.70;65.80;;;;;;4993170;28;86379;-40
2023/04/27 06:20:08;;;;;;;;;;;9.60;65.90;;;;;;4992747;28;88152;-40
2023/04/27 06:22:37;;;;;;;;;;;9.60;66.00;;;;;;4993881;28;89328;-40
2023/04/27 06:25:03;;;;;;;;;;;9.60;66.00;;;;;;4993640;28;88039;-40
2023/04/27 06:27:28;;;;;;;;;;;9.60;66.00;;;;;;4991277;28;89754;-40
2023/04/27 06:29:54;;;;;;;;;;;9.60;65.70;;;;;;4996101;28;89298;-40
2023/04/27 06:32:19;;;;;;;;;;;9.60;65.70;;;;;;4992765;28;87381;-40
2023/04/27 06:34:45;;;;;;;;;;;9.70;65.70;;;;;;4992302;28;88229;-40
2023/04/27 06:37:11;;;;;;;;;;;9.60;65.70;;;;;;4993871;28;87129;-40
2023/04/27 06:39:36;;;;;;;;;;;9.60;65.60;;;;;;4990768;28;88961;-40
2023/04/27 06:42:04;;;;;;;;;;;9.60;65.80;;;;;;4990843;28;89190;-40
2023/04/27 06:44:30;;;;;;;;;;;9.60;65.80;;;;;;4993041;28;87472;-40
2023/04/27 06:46:55;;;;;;;;;;;9.60;65.70;;;;;;4992223;28;89462;-40
2023/04/27 06:49:21;;;;;;;;;;;9.70;65.60;;;;;;4990952;28;89020;-40
2023/04/27 06:51:47;;;;;;;;;;;9.70;65.50;;;;;;4996463;28;87109;-40
2023/04/27 06:54:12;;;;;;;;;;;9.60;65.60;;;;;;4990260;28;89748;-40
2023/04/27 06:56:38;;;;;;;;;;;9.70;65.60;;;;;;4993495;28;87089;-40
2023/04/27 06:59:03;;;;;;;;;;;9.70;65.60;;;;;;4991518;28;87934;-40
2023/04/27 07:01:29;;;;;;;;;;;9.70;65.60;;;;;;4992250;28;89578;-40
2023/04/27 07:03:56;;;;;;;;;;;9.60;65.50;;;;;;4991853;28;87067;-40
2023/04/27 07:06:21;;;;;;;;;;;9.70;65.50;;;;;;4991318;28;88897;-40
2023/04/27 07:08:47;;;;;;;;;;;9.60;65.50;;;;;;4993191;28;89435;-40
2023/04/27 07:11:12;;;;;;;;;;;9.60;65.40;;;;;;4990231;28;87136;-40
2023/04/27 07:13:38;;;;;;;;;;;9.60;65.40;;;;;;4994910;28;88813;-40
2023/04/27 07:16:03;;;;;;;;;;;9.60;65.40;;;;;;4991556;28;87622;-40
2023/04/27 07:18:29;;;;;;;;;;;9.70;65.50;;;;;;4991875;28;87344;-40
2023/04/27 07:20:56;;;;;;;;;;;9.70;65.50;;;;;;4992362;28;89430;-40
2023/04/27 07:23:22;;;;;;;;;;;9.60;65.50;;;;;;4989919;28;87279;-40
2023/04/27 07:25:48;;;;;;;;;;;9.70;65.50;;;;;;4993624;28;87278;-40
2023/04/27 07:28:14;;;;;;;;;;;9.60;65.40;;;;;;4990301;28;89749;-40
2023/04/27 07:30:40;;;;;;;;;;;9.60;65.50;;;;;;4993181;28;86904;-40
2023/04/27 07:33:06;;;;;;;;;;;9.60;65.60;;;;;;4991682;28;87958;-40
2023/04/27 07:35:32;;;;;;;;;;;9.60;65.60;;;;;;4993402;28;87814;-40
2023/04/27 07:37:59;;;;;;;;;;;9.60;65.50;;;;;;4992764;28;88018;-40
2023/04/27 07:40:25;;;;;;;;;;;9.60;65.40;;;;;;4989542;28;89196;-40
2023/04/27 07:42:50;;;;;;;;;;;9.60;65.40;;;;;;4992573;28;87068;-40
2023/04/27 07:45:16;;;;;;;;;;;9.60;65.40;;;;;;4991009;28;89204;-40
2023/04/27 07:47:42;;;;;;;;;;;9.60;65.40;;;;;;4990921;28;87945;-40
2023/04/27 07:50:08;;;;;;;;;;;9.60;65.40;;;;;;4991753;28;87098;-40
2023/04/27 07:52:34;;;;;;;;;;;9.60;65.50;;;;;;4989400;28;89082;-40
2023/04/27 07:55:00;;;;;;;;;;;9.60;65.50;;;;;;4993053;28;87324;-40
2023/04/27 07:57:26;;;;;;;;;;;9.60;65.40;;;;;;4991916;28;88167;-40
2023/04/27 07:59:52;;;;;;;;;;;9.50;65.50;;;;;;4991131;28;87239;-40
2023/04/27 08:02:17;;;;;;;;;;;9.60;65.40;;;;;;4992950;28;88050;-40
2023/04/27 08:04:43;;;;;;;;;;;9.60;65.40;;;;;;4989858;28;89878;-41
2023/04/27 08:07:08;;;;;;;;;;;9.60;65.30;;;;;;4991932;28;90157;-40
2023/04/27 08:09:34;;;;;;;;;;;9.60;65.30;;;;;;4988826;28;87204;-40
2023/04/27 08:12:01;;;;;;;;;;;9.60;65.30;;;;;;4992303;28;89008;-40
2023/04/27 08:14:27;;;;;;;;;;;9.60;65.30;;;;;;4989183;28;90092;-40
2023/04/27 08:16:52;;;;;;;;;;;9.50;65.30;;;;;;4993141;28;86996;-40
2023/04/27 08:19:18;;;;;;;;;;;9.60;65.30;;;;;;4991799;28;88738;-40
2023/04/27 08:21:43;;;;;;;;;;;9.50;65.30;;;;;;4989047;28;88278;-40
2023/04/27 08:24:09;;;;;;;;;;;9.50;65.30;;;;;;4991999;28;89433;-40
2023/04/27 08:26:35;;;;;;;;;;;9.50;65.30;;;;;;4988487;28;89541;-40
2023/04/27 08:29:01;;;;;;;;;;;9.60;65.30;;;;;;4991462;28;87410;-40
2023/04/27 08:31:26;;;;;;;;;;;9.50;65.30;;;;;;4990153;28;88889;-40
2023/04/27 08:33:52;;;;;;;;;;;9.60;65.20;;;;;;4989553;28;87234;-40
2023/04/27 08:36:23;;;;;;;;;;;9.60;65.40;;;;;;4993515;28;87814;-40
2023/04/27 08:38:49;;;;;;;;;;;9.50;65.30;;;;;;4995327;28;88146;-40
2023/04/27 08:41:22;;;;;;;;;;;9.50;65.30;;;;;;4994590;28;88174;-40
2023/04/27 08:43:48;;;;;;;;;;;9.60;65.40;;;;;;4995684;28;88705;-40
2023/04/27 08:46:21;;;;;;;;;;;9.50;65.30;;;;;;4992132;28;89715;-40
2023/04/27 08:48:48;;;;;;;;;;;9.60;65.40;;;;;;4994884;28;87078;-40
2023/04/27 08:51:14;;;;;;;;;;;9.60;65.30;;;;;;4993813;28;88923;-40
2023/04/27 08:53:45;;;;;;;;;;;9.50;65.30;;;;;;4992498;28;89548;-40
2023/04/27 08:56:10;;;;;;;;;;;9.60;65.20;;;;;;4995439;28;87184;-40
2023/04/27 08:58:36;;;;;;;;;;;9.60;65.40;;;;;;4993176;28;87478;-40
2023/04/27 09:01:08;;;;;;;;;;;9.60;65.40;;;;;;4997144;28;87944;-40
2023/04/27 09:03:34;;;;;;;;;;;9.50;65.40;;;;;;4994678;28;87491;-40
2023/04/27 09:06:01;;;;;;;;;;;9.60;65.40;;;;;;4991731;28;88502;-40
2023/04/27 09:08:26;;;;;;;;;;;9.60;65.40;;;;;;4992577;28;86484;-40
2023/04/27 09:10:53;;;;;;;;;;;9.60;65.10;;;;;;4994888;28;87099;-40
2023/04/27 09:13:19;;;;;;;;;;;9.60;65.20;;;;;;4993100;28;88492;-40
2023/04/27 09:15:48;;;;;;;;;;;9.60;65.20;;;;;;4991734;28;88145;-40
2023/04/27 09:18:16;;;;;;;;;;;9.60;65.20;;;;;;4995247;28;90026;-40
2023/04/27 09:20:45;;;;;;;;;;;9.60;65.20;;;;;;4991499;28;89641;-40
2023/04/27 09:23:25;;;;;;;;;;;9.60;65.30;;;;;;4996625;28;87200;-40
2023/04/27 09:25:50;;;;;;;;;;;9.60;65.40;;;;;;4991629;28;89874;-40
2023/04/27 09:28:16;;;;;;;;;;;9.60;65.30;;;;;;4994696;28;87043;-40
2023/04/27 09:30:50;;;;;;;;;;;9.60;65.40;;;;;;4992930;28;88802;-40
2023/04/27 09:33:21;;;;;;;;;;;9.60;65.40;;;;;;4992082;28;87543;-40
2023/04/27 09:35:47;;;;;;;;;;;9.60;65.40;;;;;;4992531;28;87092;-40
2023/04/27 09:38:13;;;;;;;;;;;9.60;65.50;;;;;;4993715;28;88083;-40
2023/04/27 09:40:39;;;;;;;;;;;9.50;65.60;;;;;;4992190;28;90906;-40
2023/04/27 09:43:05;;;;;;;;;;;9.60;65.50;;;;;;4992385;28;87402;-40
2023/04/27 09:45:32;;;;;;;;;;;9.50;65.60;;;;;;4997349;28;87403;-40
2023/04/27 09:47:57;;;;;;;;;;;9.60;65.70;;;;;;4991622;28;87137;-40
2023/04/27 09:50:23;;;;;;;;;;;9.60;65.60;;;;;;4994228;28;89079;-40
2023/04/27 09:52:48;;;;;;;;;;;9.60;65.50;;;;;;4992392;28;89381;-40
2023/04/27 09:55:16;;;;;;;;;;;9.60;65.50;;;;;;4992570;28;87538;-40
2023/04/27 09:57:41;;;;;;;;;;;9.60;65.60;;;;;;4994080;28;88814;-40
2023/04/27 10:00:09;;;;;;;;;;;9.60;65.50;;;;;;4990957;28;89658;-40
2023/04/27 10:02:41;;;;;;;;;;;9.60;65.50;;;;;;4991213;28;88324;-40
2023/04/27 10:05:08;;;;;;;;;;;9.60;65.40;;;;;;4994640;28;89014;-40
2023/04/27 10:07:33;;;;;;;;;;;9.70;65.30;;;;;;4993771;28;87659;-40
2023/04/27 10:10:03;;;;;;;;;;;9.70;65.40;;;;;;4991558;28;88795;-40
2023/04/27 10:12:35;;;;;;;;;;;9.70;65.10;;;;;;4990975;28;89440;-40
2023/04/27 10:15:10;;;;;;;;;;;9.70;65.20;;;;;;4991825;28;87206;-40
2023/04/27 10:17:36;;;;;;;;;;;9.70;65.20;;;;;;4994359;28;87399;-40
2023/04/27 10:20:03;;;;;;;;;;;9.70;65.20;;;;;;4990814;28;88558;-40
2023/04/27 10:22:41;;;;;;;;;;;9.70;65.20;;;;;;4993386;28;86310;-40
2023/04/27 10:25:13;;;;;;;;;;;9.70;65.40;;;;;;4994146;28;88335;-41
2023/04/27 10:27:40;;;;;;;;;;;9.70;65.30;;;;;;4994534;28;88628;-40
2023/04/27 10:30:11;;;;;;;;;;;9.80;65.30;;;;;;4991647;28;89031;-40
2023/04/27 10:32:37;;;;;;;;;;;9.70;65.30;;;;;;4993771;28;89674;-40
2023/04/27 10:35:06;;;;;;;;;;;9.80;65.10;;;;;;4990936;28;87672;-40
2023/04/27 10:37:40;;;;;;;;;;;9.80;65.30;;;;;;4993302;28;88793;-40
2023/04/27 10:40:06;;;;;;;;;;;9.80;65.30;;;;;;4993457;28;89303;-40
2023/04/27 10:42:32;;;;;;;;;;;9.80;65.30;;;;;;4991061;28;87213;-40
2023/04/27 10:44:57;;;;;;;;;;;9.80;65.30;;;;;;4993878;28;87612;-40
2023/04/27 10:47:23;;;;;;;;;;;9.80;65.30;;;;;;4991861;28;88657;-40
2023/04/27 10:49:53;;;;;;;;;;;9.80;65.40;;;;;;4995395;28;87145;-40
2023/04/27 10:52:18;;;;;;;;;;;9.80;65.50;;;;;;4992675;28;89305;-40
2023/04/27 10:54:45;;;;;;;;;;;9.80;65.30;;;;;;4993267;28;87982;-40
2023/04/27 10:57:11;;;;;;;;;;;9.80;65.40;;;;;;4990359;28;89623;-40
2023/04/27 10:59:47;;;;;;;;;;;9.80;65.40;;;;;;4992143;28;88499;-40
2023/04/27 11:02:12;;;;;;;;;;;9.80;65.40;;;;;;4992791;28;87093;-40
2023/04/27 11:04:41;;;;;;;;;;;9.80;65.40;;;;;;4990380;28;87556;-40
2023/04/27 11:07:08;;;;;;;;;;;9.80;65.50;;;;;;4992151;28;89638;-40
2023/04/27 11:09:34;;;;;;;;;;;9.80;65.50;;;;;;4991161;28;87142;-40
2023/04/27 11:12:00;;;;;;;;;;;9.80;65.40;;;;;;4994184;28;89082;-40
2023/04/27 11:14:26;;;;;;;;;;;9.80;65.40;;;;;;4992497;28;87094;-40
2023/04/27 11:16:51;;;;;;;;;;;9.80;65.50;;;;;;4990293;28;87553;-40
2023/04/27 11:19:17;;;;;;;;;;;9.80;65.40;;;;;;4988697;28;89707;-40
2023/04/27 11:21:42;;;;;;;;;;;9.80;65.50;;;;;;4992897;28;87127;-40
2023/04/27 11:24:09;;;;;;;;;;;9.80;65.50;;;;;;4990149;28;88554;-40
2023/04/27 11:26:34;;;;;;;;;;;9.80;65.10;;;;;;4990366;28;89341;-40
2023/04/27 11:29:03;;;;;;;;;;;9.80;65.20;;;;;;4991911;28;87017;-40
2023/04/27 11:31:38;;;;;;;;;;;9.90;65.30;;;;;;4989930;28;87107;-40
2023/04/27 11:34:05;;;;;;;;;;;9.90;65.20;;;;;;4994102;28;87238;-40
2023/04/27 11:36:31;;;;;;;;;;;9.90;65.20;;;;;;4992550;28;87280;-40
2023/04/27 11:38:58;;;;;;;;;;;9.90;65.30;;;;;;4989571;28;88957;-40
2023/04/27 11:41:31;;;;;;;;;;;9.90;65.40;;;;;;4993317;28;87151;-40
2023/04/27 11:44:02;;;;;;;;;;;9.90;65.40;;;;;;4990848;28;88646;-40
2023/04/27 11:46:28;;;;;;;;;;;9.90;65.20;;;;;;4989808;28;88445;-40
2023/04/27 11:48:59;;;;;;;;;;;9.90;65.10;;;;;;4992175;28;87024;-40
2023/04/27 11:51:25;;;;;;;;;;;9.90;65.40;;;;;;4991279;28;88483;-40
2023/04/27 11:53:51;;;;;;;;;;;9.90;65.50;;;;;;4990758;28;88154;-40
2023/04/27 11:56:17;;;;;;;;;;;9.90;65.60;;;;;;4994882;28;87099;-40
2023/04/27 11:58:43;;;;;;;;;;;9.90;65.50;;;;;;4989567;28;89305;-40
2023/04/27 12:01:10;;;;;;;;;;;9.90;65.50;;;;;;4992738;28;86407;-40
2023/04/27 12:03:36;;;;;;;;;;;9.80;65.30;;;;;;4989722;28;87949;-40
2023/04/27 12:06:02;;;;;;;;;;;9.80;65.20;;;;;;4990961;28;89567;-40
2023/04/27 12:08:27;;;;;;;;;;;9.80;65.50;;;;;;4990453;28;88416;-40
2023/04/27 12:10:53;;;;;;;;;;;9.90;65.50;;;;;;4991512;28;88933;-40
2023/04/27 12:13:19;;;;;;;;;;;9.80;65.40;;;;;;4995665;28;88471;-41
2023/04/27 12:15:45;;;;;;;;;;;9.90;65.40;;;;;;4995743;28;87174;-40
2023/04/27 12:18:11;;;;;;;;;;;9.90;65.50;;;;;;4995755;28;89619;-40
2023/04/27 12:20:36;;;;;;;;;;;9.90;65.40;;;;;;4993883;28;87691;-40
2023/04/27 12:23:02;;;;;;;;;;;9.90;65.20;;;;;;4994615;28;88666;-40
2023/04/27 12:25:27;;;;;;;;;;;9.90;65.20;;;;;;4995504;28;87873;-40
2023/04/27 12:27:53;;;;;;;;;;;9.90;65.40;;;;;;4993565;28;87104;-40
2023/04/27 12:30:20;;;;;;;;;;;9.90;65.50;;;;;;4996187;28;88736;-40
2023/04/27 12:32:45;;;;;;;;;;;9.90;65.20;;;;;;4991765;28;90192;-40
2023/04/27 12:35:11;;;;;;;;;;;9.90;65.10;;;;;;4995128;28;87748;-40
2023/04/27 12:37:37;;;;;;;;;;;9.90;65.10;;;;;;4996935;28;88849;-40
2023/04/27 12:40:06;;;;;;;;;;;9.90;65.50;;;;;;4993771;28;87529;-40
2023/04/27 12:42:31;;;;;;;;;;;9.90;65.40;;;;;;4995930;28;88863;-40
2023/04/27 12:44:57;;;;;;;;;;;10.00;65.40;;;;;;4991937;28;89419;-40
2023/04/27 12:47:23;;;;;;;;;;;10.10;64.90;;;;;;4995205;28;87753;-40
2023/04/27 12:49:49;;;;;;;;;;;10.10;65.00;;;;;;4994182;28;87440;-40
2023/04/27 12:52:15;;;;;;;;;;;10.10;64.80;;;;;;4993454;28;89870;-40
2023/04/27 12:54:40;;;;;;;;;;;10.20;65.20;;;;;;4995113;28;87108;-40
2023/04/27 12:57:06;;;;;;;;;;;10.30;64.40;;;;;;4991864;28;89056;-40
2023/04/27 12:59:32;;;;;;;;;;;10.20;64.50;;;;;;4998238;28;89420;-40
2023/04/27 13:01:57;;;;;;;;;;;10.20;64.70;;;;;;4993211;28;87354;-40
2023/04/27 13:04:23;;;;;;;;;;;10.10;64.80;;;;;;4994172;28;88159;-40
2023/04/27 13:06:48;;;;;;;;;;;10.20;64.70;;;;;;4993692;28;87096;-40
2023/04/27 13:09:15;;;;;;;;;;;10.20;64.80;;;;;;4993033;28;88748;-40
2023/04/27 13:11:41;;;;;;;;;;;10.20;64.80;;;;;;4994845;28;89198;-40
2023/04/27 13:14:06;;;;;;;;;;;10.20;64.70;;;;;;4992541;28;86655;-40
2023/04/27 13:16:32;;;;;;;;;;;10.30;64.70;;;;;;4994912;28;87183;-40
2023/04/27 13:18:57;;;;;;;;;;;10.30;64.60;;;;;;4992308;28;89738;-40
2023/04/27 13:21:23;;;;;;;;;;;10.30;64.60;;;;;;4995332;28;88155;-40
2023/04/27 13:23:49;;;;;;;;;;;10.30;64.40;;;;;;4993496;28;87603;-40
2023/04/27 13:26:15;;;;;;;;;;;10.30;64.60;;;;;;4991963;28;87040;-40
2023/04/27 13:28:41;;;;;;;;;;;10.20;64.80;;;;;;4994787;28;87827;-40
2023/04/27 13:31:07;;;;;;;;;;;10.20;65.00;;;;;;4991987;28;89792;-40
2023/04/27 13:33:39;;;;;;;;;;;10.40;64.70;;;;;;4994269;28;87103;-40
2023/04/27 13:36:04;;;;;;;;;;;10.30;64.70;;;;;;4994821;28;87368;-40
2023/04/27 13:38:30;;;;;;;;;;;10.30;64.50;;;;;;4994402;28;88655;-40
2023/04/27 13:40:55;;;;;;;;;;;10.20;64.90;;;;;;4991627;28;87335;-40
2023/04/27 13:43:21;;;;;;;;;;;10.20;65.20;;;;;;4997325;28;87505;-40
2023/04/27 13:45:48;;;;;;;;;;;10.30;65.10;;;;;;4991649;28;88793;-40
2023/04/27 13:48:13;;;;;;;;;;;10.20;64.80;;;;;;4993042;28;89703;-40
2023/04/27 13:50:39;;;;;;;;;;;10.20;64.90;;;;;;4993171;28;89181;-40
2023/04/27 13:53:04;;;;;;;;;;;10.20;65.00;;;;;;4992066;28;86997;-40
2023/04/27 13:55:30;;;;;;;;;;;10.20;65.20;;;;;;4994733;28;87371;-40
2023/04/27 13:57:56;;;;;;;;;;;10.20;65.50;;;;;;4990783;28;89578;-40
2023/04/27 14:00:21;;;;;;;;;;;10.20;65.70;;;;;;4994558;28;87152;-40
2023/04/27 14:02:47;;;;;;;;;;;10.20;65.80;;;;;;4995780;28;87519;-40
2023/04/27 14:05:12;;;;;;;;;;;10.20;65.90;;;;;;4992469;28;87481;-40
2023/04/27 14:07:38;;;;;;;;;;;10.20;65.90;;;;;;4993750;28;88849;-40
2023/04/27 14:10:04;;;;;;;;;;;10.30;65.90;;;;;;4990003;28;90574;-40
2023/04/27 14:12:30;;;;;;;;;;;10.30;65.90;;;;;;4992533;28;87714;-40
2023/04/27 14:14:56;;;;;;;;;;;10.30;65.80;;;;;;4990659;28;88044;-40
2023/04/27 14:17:21;;;;;;;;;;;10.40;65.80;;;;;;4992478;28;87962;-40